sensor_id;sensor_type;location;lat;lon;timestamp;pressure;altitude;pressure_sealevel;temperature;humidity
22930;BME280;11630;42.660;23.292;2023-02-01T00:00:12;67719.46;;;1.61;100.00
22930;BME280;11630;42.660;23.292;2023-02-01T00:02:41;67730.77;;;1.69;100.00
22930;BME280;11630;42.660;23.292;2023-02-01T00:05:12;67730.26;;;1.71;100.00
22930;BME280;11630;42.660;23.292;2023-02-01T00:07:44;67734.25;;;1.69;100.00
22930;BME280;11630;42.660;23.292;2023-02-01T00:10:16;67724.84;;;1.66;100.00
22930;BME280;11630;42.660;23.292;2023-02-01T00:12:47;67723.26;;;1.67;100.00
22930;BME280;11630;42.660;23.292;2023-02-01T00:15:17;67725.42;;;1.69;100.00
22930;BME280;11630;42.660;23.292;2023-02-01T00:17:48;67728.86;;;1.66;100.00
22930;BME280;11630;42.660;23.292;2023-02-01T00:20:18;67724.31;;;1.66;100.00
22930;BME280;11630;42.660;23.292;2023-02-01T00:22:49;67729.17;;;1.70;100.00
22930;BME280;11630;42.660;23.292;2023-02-01T00:25:20;67724.59;;;1.67;100.00
22930;BME280;11630;42.660;23.292;2023-02-01T00:27:51;67736.94;;;1.71;100.00
22930;BME280;11630;42.660;23.292;2023-02-01T00:30:22;67739.93;;;1.78;100.00
22930;BME280;11630;42.660;23.292;2023-02-01T00:32:53;67729.41;;;1.67;100.00
22930;BME280;11630;42.660;23.292;2023-02-01T00:35:24;67729.16;;;1.68;100.00
22930;BME280;11630;42.660;23.292;2023-02-01T00:37:55;67729.43;;;1.69;100.00
22930;BME280;11630;42.660;23.292;2023-02-01T00:40:25;67732.38;;;1.71;100.00
22930;BME280;11630;42.660;23.292;2023-02-01T00:42:55;67734.81;;;1.74;100.00
22930;BME280;11630;42.660;23.292;2023-02-01T00:45:26;67728.09;;;1.69;100.00
22930;BME280;11630;42.660;23.292;2023-02-01T00:47:57;67728.35;;;1.68;100.00
22930;BME280;11630;42.660;23.292;2023-02-01T00:50:28;67722.39;;;1.60;100.00
22930;BME280;11630;42.660;23.292;2023-02-01T00:52:59;67721.61;;;1.61;100.00
22930;BME280;11630;42.660;23.292;2023-02-01T00:55:30;67722.14;;;1.61;100.00
22930;BME280;11630;42.660;23.292;2023-02-01T00:58:02;67715.41;;;1.56;100.00
22930;BME280;11630;42.660;23.292;2023-02-01T01:00:32;67705.97;;;1.49;100.00
22930;BME280;11630;42.660;23.292;2023-02-01T01:03:03;67717.84;;;1.60;100.00
22930;BME280;11630;42.660;23.292;2023-02-01T01:05:47;67720.27;;;1.61;100.00
22930;BME280;11630;42.660;23.292;2023-02-01T01:08:16;67729.94;;;1.67;100.00
22930;BME280;11630;42.660;23.292;2023-02-01T01:10:47;67730.26;;;1.71;100.00
22930;BME280;11630;42.660;23.292;2023-02-01T01:13:17;67732.67;;;1.72;100.00
22930;BME280;11630;42.660;23.292;2023-02-01T01:15:47;67732.13;;;1.72;100.00
22930;BME280;11630;42.660;23.292;2023-02-01T01:18:18;67736.45;;;1.76;100.00
22930;BME280;11630;42.660;23.292;2023-02-01T01:20:49;67739.93;;;1.78;100.00
22930;BME280;11630;42.660;23.292;2023-02-01T01:23:20;67737.81;;;1.78;100.00
22930;BME280;11630;42.660;23.292;2023-02-01T01:25:50;67734.81;;;1.74;100.00
22930;BME280;11630;42.660;23.292;2023-02-01T01:28:20;67730.52;;;1.70;100.00
22930;BME280;11630;42.660;23.292;2023-02-01T01:30:51;67720.81;;;1.64;100.00
22930;BME280;11630;42.660;23.292;2023-02-01T01:33:22;67731.83;;;1.68;100.00
22930;BME280;11630;42.660;23.292;2023-02-01T01:35:53;67725.32;;;1.59;99.78
22930;BME280;11630;42.660;23.292;2023-02-01T01:38:23;67729.69;;;1.68;99.33
22930;BME280;11630;42.660;23.292;2023-02-01T01:40:53;67723.49;;;1.64;99.32
22930;BME280;11630;42.660;23.292;2023-02-01T01:43:23;67708.12;;;1.49;99.60
22930;BME280;11630;42.660;23.292;2023-02-01T01:45:54;67716.20;;;1.56;99.53
22930;BME280;11630;42.660;23.292;2023-02-01T01:48:33;67705.19;;;1.50;99.72
22930;BME280;11630;42.660;23.292;2023-02-01T01:51:04;67707.03;;;1.48;99.39
22930;BME280;11630;42.660;23.292;2023-02-01T01:53:48;67694.65;;;1.39;99.02
22930;BME280;11630;42.660;23.292;2023-02-01T01:56:18;67692.19;;;1.33;99.71
22930;BME280;11630;42.660;23.292;2023-02-01T01:58:50;67676.88;;;1.25;99.90
22930;BME280;11630;42.660;23.292;2023-02-01T02:01:22;67677.34;;;1.18;100.00
22930;BME280;11630;42.660;23.292;2023-02-01T02:03:53;67675.73;;;1.16;100.00
22930;BME280;11630;42.660;23.292;2023-02-01T02:06:41;67670.09;;;1.15;100.00
22930;BME280;11630;42.660;23.292;2023-02-01T02:09:11;67670.65;;;1.15;100.00
22930;BME280;11630;42.660;23.292;2023-02-01T02:11:44;67664.42;;;1.06;100.00
22930;BME280;11630;42.660;23.292;2023-02-01T02:14:16;67652.56;;;0.97;100.00
22930;BME280;11630;42.660;23.292;2023-02-01T02:17:03;67646.38;;;0.93;100.00
22930;BME280;11630;42.660;23.292;2023-02-01T02:19:46;67648.27;;;0.93;100.00
22930;BME280;11630;42.660;23.292;2023-02-01T02:25:27;67646.38;;;0.93;100.00
22930;BME280;11630;42.660;23.292;2023-02-01T02:28:05;67637.24;;;0.87;100.00
22930;BME280;11630;42.660;23.292;2023-02-01T02:30:49;67644.52;;;0.92;100.00
22930;BME280;11630;42.660;23.292;2023-02-01T02:33:38;67653.63;;;0.96;100.00
22930;BME280;11630;42.660;23.292;2023-02-01T02:41:55;67656.88;;;0.99;100.00
22930;BME280;11630;42.660;23.292;2023-02-01T02:45:06;67661.75;;;1.06;99.87
22930;BME280;11630;42.660;23.292;2023-02-01T02:47:57;67656.91;;;1.04;99.17
22930;BME280;11630;42.660;23.292;2023-02-01T02:50:35;67662.55;;;1.08;99.14
22930;BME280;11630;42.660;23.292;2023-02-01T02:56:41;67677.34;;;1.18;98.23
22930;BME280;11630;42.660;23.292;2023-02-01T02:59:30;67676.31;;;1.22;97.49
22930;BME280;11630;42.660;23.292;2023-02-01T03:02:18;67680.06;;;1.23;97.50
22930;BME280;11630;42.660;23.292;2023-02-01T03:05:06;67680.89;;;1.25;97.14
22930;BME280;11630;42.660;23.292;2023-02-01T03:07:52;67685.47;;;1.28;96.15
22930;BME280;11630;42.660;23.292;2023-02-01T03:10:35;67693.02;;;1.35;95.63
22930;BME280;11630;42.660;23.292;2023-02-01T03:13:06;67687.92;;;1.34;95.58
22930;BME280;11630;42.660;23.292;2023-02-01T03:15:45;67686.27;;;1.30;95.48
22930;BME280;11630;42.660;23.292;2023-02-01T03:18:18;67687.66;;;1.32;95.27
22930;BME280;11630;42.660;23.292;2023-02-01T03:20:49;67690.33;;;1.32;95.54
22930;BME280;11630;42.660;23.292;2023-02-01T03:23:21;67693.30;;;1.36;96.06
22930;BME280;11630;42.660;23.292;2023-02-01T03:25:55;67688.16;;;1.30;96.31
22930;BME280;11630;42.660;23.292;2023-02-01T03:28:29;67673.64;;;1.22;96.94
22930;BME280;11630;42.660;23.292;2023-02-01T03:31:02;67685.47;;;1.28;96.86
22930;BME280;11630;42.660;23.292;2023-02-01T03:33:33;67683.05;;;1.27;96.99
22930;BME280;11630;42.660;23.292;2023-02-01T03:36:26;67683.58;;;1.27;97.19
22930;BME280;11630;42.660;23.292;2023-02-01T03:39:02;67686.27;;;1.30;97.46
22930;BME280;11630;42.660;23.292;2023-02-01T03:41:47;67693.02;;;1.35;97.29
22930;BME280;11630;42.660;23.292;2023-02-01T03:47:17;67684.41;;;1.29;97.60
22930;BME280;11630;42.660;23.292;2023-02-01T03:49:54;67691.16;;;1.37;97.33
22930;BME280;11630;42.660;23.292;2023-02-01T03:52:28;67700.84;;;1.43;97.07
22930;BME280;11630;42.660;23.292;2023-02-01T03:54:58;67705.70;;;1.48;96.93
22930;BME280;11630;42.660;23.292;2023-02-01T03:57:31;67703.83;;;1.47;96.48
22930;BME280;11630;42.660;23.292;2023-02-01T04:00:21;67704.88;;;1.46;96.26
22930;BME280;11630;42.660;23.292;2023-02-01T04:02:52;67707.05;;;1.50;96.36
22930;BME280;11630;42.660;23.292;2023-02-01T04:05:26;67706.27;;;1.51;96.77
22930;BME280;11630;42.660;23.292;2023-02-01T04:07:56;67725.66;;;1.66;96.33
22930;BME280;11630;42.660;23.292;2023-02-01T04:10:27;67720.80;;;1.61;96.41
22930;BME280;11630;42.660;23.292;2023-02-01T04:12:58;67719.97;;;1.59;96.89
22930;BME280;11630;42.660;23.292;2023-02-01T04:15:29;67712.99;;;1.55;97.70
22930;BME280;11630;42.660;23.292;2023-02-01T04:18:01;67718.64;;;1.59;97.76
22930;BME280;11630;42.660;23.292;2023-02-01T04:20:34;67714.86;;;1.56;98.12
22930;BME280;11630;42.660;23.292;2023-02-01T04:23:05;67712.99;;;1.55;98.57
22930;BME280;11630;42.660;23.292;2023-02-01T04:25:36;67714.59;;;1.54;99.33
22930;BME280;11630;42.660;23.292;2023-02-01T04:28:06;67713.50;;;1.53;99.51
22930;BME280;11630;42.660;23.292;2023-02-01T04:30:37;67712.42;;;1.52;99.92
22930;BME280;11630;42.660;23.292;2023-02-01T04:33:08;67711.14;;;1.57;100.00
22930;BME280;11630;42.660;23.292;2023-02-01T04:35:39;67708.95;;;1.51;100.00
22930;BME280;11630;42.660;23.292;2023-02-01T04:38:10;67715.67;;;1.55;100.00
22930;BME280;11630;42.660;23.292;2023-02-01T04:40:42;67713.25;;;1.54;100.00
22930;BME280;11630;42.660;23.292;2023-02-01T04:43:12;67715.67;;;1.55;100.00
22930;BME280;11630;42.660;23.292;2023-02-01T04:45:47;67711.91;;;1.54;100.00
22930;BME280;11630;42.660;23.292;2023-02-01T04:48:19;67720.27;;;1.61;100.00
22930;BME280;11630;42.660;23.292;2023-02-01T04:50:50;67731.02;;;1.68;100.00
22930;BME280;11630;42.660;23.292;2023-02-01T04:53:20;67730.52;;;1.70;100.00
22930;BME280;11630;42.660;23.292;2023-02-01T04:55:51;67728.61;;;1.67;100.00
22930;BME280;11630;42.660;23.292;2023-02-01T04:58:22;67732.14;;;1.74;100.00
22930;BME280;11630;42.660;23.292;2023-02-01T05:00:53;67731.59;;;1.71;100.00
22930;BME280;11630;42.660;23.292;2023-02-01T05:03:24;67729.17;;;1.70;100.00
22930;BME280;11630;42.660;23.292;2023-02-01T05:05:55;67739.91;;;1.75;100.00
22930;BME280;11630;42.660;23.292;2023-02-01T05:08:26;67736.16;;;1.74;100.00
22930;BME280;11630;42.660;23.292;2023-02-01T05:10:56;67735.08;;;1.73;100.00
22930;BME280;11630;42.660;23.292;2023-02-01T05:13:27;67735.90;;;1.75;100.00
22930;BME280;11630;42.660;23.292;2023-02-01T05:16:15;67739.14;;;1.78;100.00
22930;BME280;11630;42.660;23.292;2023-02-01T05:18:45;67743.45;;;1.82;100.00
22930;BME280;11630;42.660;23.292;2023-02-01T05:21:16;67751.02;;;1.92;100.00
22930;BME280;11630;42.660;23.292;2023-02-01T05:23:47;67749.67;;;1.89;100.00
22930;BME280;11630;42.660;23.292;2023-02-01T05:26:34;67749.39;;;1.88;100.00
22930;BME280;11630;42.660;23.292;2023-02-01T05:29:06;67753.13;;;1.86;100.00
22930;BME280;11630;42.660;23.292;2023-02-01T05:31:37;67751.02;;;1.92;100.00
22930;BME280;11630;42.660;23.292;2023-02-01T05:34:08;67755.33;;;1.93;100.00
22930;BME280;11630;42.660;23.292;2023-02-01T05:36:38;67752.36;;;1.92;100.00
22930;BME280;11630;42.660;23.292;2023-02-01T05:39:09;67762.89;;;2.00;100.00
22930;BME280;11630;42.660;23.292;2023-02-01T05:41:40;67762.06;;;1.98;100.00
22930;BME280;11630;42.660;23.292;2023-02-01T05:44:12;67761.55;;;2.00;100.00
22930;BME280;11630;42.660;23.292;2023-02-01T05:46:41;67774.73;;;2.09;100.00
22930;BME280;11630;42.660;23.292;2023-02-01T05:49:12;67769.36;;;2.06;100.00
22930;BME280;11630;42.660;23.292;2023-02-01T05:51:43;67767.19;;;2.04;100.00
22930;BME280;11630;42.660;23.292;2023-02-01T05:54:15;67770.70;;;2.06;100.00
22930;BME280;11630;42.660;23.292;2023-02-01T05:56:45;67774.23;;;2.13;100.00
22930;BME280;11630;42.660;23.292;2023-02-01T05:59:16;67777.68;;;2.10;100.00
22930;BME280;11630;42.660;23.292;2023-02-01T06:01:46;67781.24;;;2.17;100.00
22930;BME280;11630;42.660;23.292;2023-02-01T06:04:16;67783.95;;;2.22;100.00
22930;BME280;11630;42.660;23.292;2023-02-01T06:06:47;67782.58;;;2.17;100.00
22930;BME280;11630;42.660;23.292;2023-02-01T06:09:18;67776.91;;;2.13;100.00
22930;BME280;11630;42.660;23.292;2023-02-01T06:11:49;67783.94;;;2.20;100.00
22930;BME280;11630;42.660;23.292;2023-02-01T06:14:20;67790.94;;;2.26;100.00
22930;BME280;11630;42.660;23.292;2023-02-01T06:16:51;67791.73;;;2.23;100.00
22930;BME280;11630;42.660;23.292;2023-02-01T06:19:23;67785.55;;;2.21;100.00
22930;BME280;11630;42.660;23.292;2023-02-01T06:21:54;67787.18;;;2.25;100.00
22930;BME280;11630;42.660;23.292;2023-02-01T06:24:25;67796.05;;;2.29;100.00
22930;BME280;11630;42.660;23.292;2023-02-01T06:26:56;67806.60;;;2.40;100.00
22930;BME280;11630;42.660;23.292;2023-02-01T06:29:27;67806.05;;;2.40;100.00
22930;BME280;11630;42.660;23.292;2023-02-01T06:31:58;67805.76;;;2.36;99.66
22930;BME280;11630;42.660;23.292;2023-02-01T06:34:29;67803.09;;;2.38;100.00
22930;BME280;11630;42.660;23.292;2023-02-01T06:37:00;67806.29;;;2.36;99.68
22930;BME280;11630;42.660;23.292;2023-02-01T06:39:31;67803.91;;;2.38;99.10
22930;BME280;11630;42.660;23.292;2023-02-01T06:42:02;67804.71;;;2.40;98.51
22930;BME280;11630;42.660;23.292;2023-02-01T06:44:33;67812.78;;;2.42;98.31
22930;BME280;11630;42.660;23.292;2023-02-01T06:47:06;67809.02;;;2.41;98.52
22930;BME280;11630;42.660;23.292;2023-02-01T06:49:37;67818.70;;;2.48;97.72
22930;BME280;11630;42.660;23.292;2023-02-01T06:52:09;67821.19;;;2.54;97.72
22930;BME280;11630;42.660;23.292;2023-02-01T06:54:42;67814.73;;;2.50;97.43
22930;BME280;11630;42.660;23.292;2023-02-01T06:57:14;67816.03;;;2.48;97.28
22930;BME280;11630;42.660;23.292;2023-02-01T06:59:45;67825.75;;;2.57;96.29
22930;BME280;11630;42.660;23.292;2023-02-01T07:02:15;67842.52;;;2.75;96.32
22930;BME280;11630;42.660;23.292;2023-02-01T07:04:46;67824.98;;;2.60;96.20
22930;BME280;11630;42.660;23.292;2023-02-01T07:07:17;67835.73;;;2.65;96.09
22930;BME280;11630;42.660;23.292;2023-02-01T07:09:48;67826.08;;;2.63;95.99
22930;BME280;11630;42.660;23.292;2023-02-01T07:12:19;67843.33;;;2.77;95.76
22930;BME280;11630;42.660;23.292;2023-02-01T07:14:50;67844.12;;;2.74;95.64
22930;BME280;11630;42.660;23.292;2023-02-01T07:17:21;67851.36;;;2.77;95.33
22930;BME280;11630;42.660;23.292;2023-02-01T07:19:52;67841.97;;;2.74;95.39
22930;BME280;11630;42.660;23.292;2023-02-01T07:22:22;67856.27;;;2.84;94.73
22930;BME280;11630;42.660;23.292;2023-02-01T07:24:53;67850.33;;;2.81;94.67
22930;BME280;11630;42.660;23.292;2023-02-01T07:27:24;67862.17;;;2.87;94.33
22930;BME280;11630;42.660;23.292;2023-02-01T07:29:55;67858.70;;;2.87;93.99
22930;BME280;11630;42.660;23.292;2023-02-01T07:32:26;67852.25;;;2.84;94.29
22930;BME280;11630;42.660;23.292;2023-02-01T07:34:57;67858.39;;;2.83;93.79
22930;BME280;11630;42.660;23.292;2023-02-01T07:37:26;67866.23;;;2.92;93.94
22930;BME280;11630;42.660;23.292;2023-02-01T07:39:58;67867.11;;;2.99;93.21
22930;BME280;11630;42.660;23.292;2023-02-01T07:42:29;67881.13;;;3.09;93.02
22930;BME280;11630;42.660;23.292;2023-02-01T07:44:59;67887.59;;;3.12;92.52
22930;BME280;11630;42.660;23.292;2023-02-01T07:47:30;67891.08;;;3.14;92.37
22930;BME280;11630;42.660;23.292;2023-02-01T07:50:02;67881.66;;;3.09;91.99
22930;BME280;11630;42.660;23.292;2023-02-01T07:52:32;67882.47;;;3.09;92.16
22930;BME280;11630;42.660;23.292;2023-02-01T07:55:06;67877.07;;;3.06;92.45
22930;BME280;11630;42.660;23.292;2023-02-01T07:57:37;67886.52;;;3.14;91.89
22930;BME280;11630;42.660;23.292;2023-02-01T08:00:09;67887.61;;;3.15;92.08
22930;BME280;11630;42.660;23.292;2023-02-01T08:02:57;67891.42;;;3.23;91.56
22930;BME280;11630;42.660;23.292;2023-02-01T08:05:28;67888.13;;;3.13;90.60
22930;BME280;11630;42.660;23.292;2023-02-01T08:07:59;67895.69;;;3.20;90.63
22930;BME280;11630;42.660;23.292;2023-02-01T08:10:30;67904.09;;;3.31;90.64
22930;BME280;11630;42.660;23.292;2023-02-01T08:13:03;67899.20;;;3.24;90.65
22930;BME280;11630;42.660;23.292;2023-02-01T08:15:35;67895.44;;;3.23;90.15
22930;BME280;11630;42.660;23.292;2023-02-01T08:18:05;67905.41;;;3.29;90.13
22930;BME280;11630;42.660;23.292;2023-02-01T08:20:36;67905.16;;;3.30;89.80
22930;BME280;11630;42.660;23.292;2023-02-01T08:23:08;67903.00;;;3.30;90.10
22930;BME280;11630;42.660;23.292;2023-02-01T08:25:41;67911.66;;;3.38;90.09
22930;BME280;11630;42.660;23.292;2023-02-01T08:28:12;67904.34;;;3.30;89.95
22930;BME280;11630;42.660;23.292;2023-02-01T08:30:41;67911.38;;;3.37;90.06
22930;BME280;11630;42.660;23.292;2023-02-01T08:33:12;67907.03;;;3.30;89.91
22930;BME280;11630;42.660;23.292;2023-02-01T08:35:43;67909.80;;;3.40;89.84
22930;BME280;11630;42.660;23.292;2023-02-01T08:38:14;67915.42;;;3.39;89.89
22930;BME280;11630;42.660;23.292;2023-02-01T08:40:44;67927.59;;;3.52;89.68
22930;BME280;11630;42.660;23.292;2023-02-01T08:43:15;67932.66;;;3.50;89.60
22930;BME280;11630;42.660;23.292;2023-02-01T08:45:46;67933.00;;;3.59;89.26
22930;BME280;11630;42.660;23.292;2023-02-01T08:48:17;67953.24;;;3.74;88.52
22930;BME280;11630;42.660;23.292;2023-02-01T08:50:47;67941.36;;;3.63;87.46
22930;BME280;11630;42.660;23.292;2023-02-01T08:53:17;67949.75;;;3.72;87.71
22930;BME280;11630;42.660;23.292;2023-02-01T08:55:49;67957.28;;;3.77;86.67
22930;BME280;11630;42.660;23.292;2023-02-01T08:58:21;67959.70;;;3.78;85.95
22930;BME280;11630;42.660;23.292;2023-02-01T09:00:52;67957.04;;;3.80;86.73
22930;BME280;11630;42.660;23.292;2023-02-01T09:03:21;67957.58;;;3.78;85.94
22930;BME280;11630;42.660;23.292;2023-02-01T09:05:57;67979.20;;;3.98;86.30
22930;BME280;11630;42.660;23.292;2023-02-01T09:08:24;68004.59;;;4.19;85.49
22930;BME280;11630;42.660;23.292;2023-02-01T09:10:58;68118.78;;;5.26;82.66
22930;BME280;11630;42.660;23.292;2023-02-01T09:13:26;68160.45;;;5.62;79.90
22930;BME280;11630;42.660;23.292;2023-02-01T09:15:57;68153.15;;;5.59;78.92
22930;BME280;11630;42.660;23.292;2023-02-01T09:18:28;68117.69;;;5.25;79.33
22930;BME280;11630;42.660;23.292;2023-02-01T09:21:03;68096.85;;;5.07;80.09
22930;BME280;11630;42.660;23.292;2023-02-01T09:23:31;68082.27;;;4.96;80.73
22930;BME280;11630;42.660;23.292;2023-02-01T09:26:03;68057.89;;;4.71;80.58
22930;BME280;11630;42.660;23.292;2023-02-01T09:28:34;68038.16;;;4.54;82.21
22930;BME280;11630;42.660;23.292;2023-02-01T09:31:03;68031.65;;;4.46;82.35
22930;BME280;11630;42.660;23.292;2023-02-01T09:33:34;68031.92;;;4.48;82.29
22930;BME280;11630;42.660;23.292;2023-02-01T09:36:06;68035.44;;;4.50;82.26
22930;BME280;11630;42.660;23.292;2023-02-01T09:38:35;68036.27;;;4.52;81.70
22930;BME280;11630;42.660;23.292;2023-02-01T09:44:19;68047.34;;;4.60;80.96
22930;BME280;11630;42.660;23.292;2023-02-01T09:46:46;68056.56;;;4.74;80.09
22930;BME280;11630;42.660;23.292;2023-02-01T09:49:22;68063.58;;;4.75;79.86
22930;BME280;11630;42.660;23.292;2023-02-01T09:51:59;68072.25;;;4.86;80.23
22930;BME280;11630;42.660;23.292;2023-02-01T09:54:26;68091.45;;;5.02;78.38
22930;BME280;11630;42.660;23.292;2023-02-01T09:57:02;68083.05;;;4.93;77.75
22930;BME280;11630;42.660;23.292;2023-02-01T09:59:46;68099.27;;;5.06;77.51
22930;BME280;11630;42.660;23.292;2023-02-01T10:02:25;68158.58;;;5.64;74.79
22930;BME280;11630;42.660;23.292;2023-02-01T10:04:58;68212.19;;;6.10;73.46
22930;BME280;11630;42.660;23.292;2023-02-01T10:10:40;68148.27;;;5.54;73.17
22930;BME280;11630;42.660;23.292;2023-02-01T10:13:43;68220.34;;;6.20;71.26
22930;BME280;11630;42.660;23.292;2023-02-01T10:22:08;68374.84;;;7.64;64.71
22930;BME280;11630;42.660;23.292;2023-02-01T10:24:42;68335.53;;;7.27;64.64
22930;BME280;11630;42.660;23.292;2023-02-01T10:27:19;68374.30;;;7.62;62.57
22930;BME280;11630;42.660;23.292;2023-02-01T10:29:56;68428.81;;;8.08;62.05
22930;BME280;11630;42.660;23.292;2023-02-01T10:32:34;68374.56;;;7.61;61.15
22930;BME280;11630;42.660;23.292;2023-02-01T10:35:20;68382.43;;;7.69;61.94
22930;BME280;11630;42.660;23.292;2023-02-01T10:37:46;68398.98;;;7.85;60.75
22930;BME280;11630;42.660;23.292;2023-02-01T10:40:24;68462.50;;;8.41;59.60
22930;BME280;11630;42.660;23.292;2023-02-01T10:42:57;68458.44;;;8.39;58.72
22930;BME280;11630;42.660;23.292;2023-02-01T10:45:29;68417.96;;;8.00;59.58
22930;BME280;11630;42.660;23.292;2023-02-01T10:48:02;68326.84;;;7.17;62.71
22930;BME280;11630;42.660;23.292;2023-02-01T10:50:44;68261.27;;;6.59;65.20
22930;BME280;11630;42.660;23.292;2023-02-01T10:56:10;68175.12;;;5.80;68.19
22930;BME280;11630;42.660;23.292;2023-02-01T10:58:47;68266.66;;;6.59;66.22
22930;BME280;11630;42.660;23.292;2023-02-01T11:01:28;68361.82;;;7.48;63.25
22930;BME280;11630;42.660;23.292;2023-02-01T11:03:57;68439.70;;;8.20;60.67
22930;BME280;11630;42.660;23.292;2023-02-01T11:06:39;68446.49;;;8.30;59.78
22930;BME280;11630;42.660;23.292;2023-02-01T11:09:26;68435.05;;;8.10;58.07
22930;BME280;11630;42.660;23.292;2023-02-01T11:11:58;68495.60;;;8.66;56.58
22930;BME280;11630;42.660;23.292;2023-02-01T11:14:39;68505.40;;;8.83;55.86
22930;BME280;11630;42.660;23.292;2023-02-01T11:17:23;68503.77;;;8.76;55.25
22930;BME280;11630;42.660;23.292;2023-02-01T11:19:56;68435.09;;;8.17;57.13
22930;BME280;11630;42.660;23.292;2023-02-01T11:22:29;68456.53;;;8.38;58.23
22930;BME280;11630;42.660;23.292;2023-02-01T11:25:01;68455.17;;;8.33;57.69
22930;BME280;11630;42.660;23.292;2023-02-01T11:27:33;68501.59;;;8.77;56.51
22930;BME280;11630;42.660;23.292;2023-02-01T11:30:04;68506.47;;;8.76;56.88
22930;BME280;11630;42.660;23.292;2023-02-01T11:32:35;68479.06;;;8.57;56.95
22930;BME280;11630;42.660;23.292;2023-02-01T11:35:07;68481.50;;;8.58;56.78
22930;BME280;11630;42.660;23.292;2023-02-01T11:37:42;68508.93;;;8.85;55.78
22930;BME280;11630;42.660;23.292;2023-02-01T11:40:23;68475.00;;;8.57;55.88
22930;BME280;11630;42.660;23.292;2023-02-01T11:42:56;68472.02;;;8.53;55.79
22930;BME280;11630;42.660;23.292;2023-02-01T11:45:30;68454.64;;;8.35;56.47
22930;BME280;11630;42.660;23.292;2023-02-01T11:48:06;68475.26;;;8.54;56.79
22930;BME280;11630;42.660;23.292;2023-02-01T11:56:33;68437.27;;;8.19;57.77
22930;BME280;11630;42.660;23.292;2023-02-01T11:59:28;68450.28;;;8.31;57.23
22930;BME280;11630;42.660;23.292;2023-02-01T12:08:00;68542.34;;;9.17;53.79
22930;BME280;11630;42.660;23.292;2023-02-01T12:10:45;68524.13;;;8.99;54.89
22930;BME280;11630;42.660;23.292;2023-02-01T12:13:25;68496.97;;;8.71;55.96
22930;BME280;11630;42.660;23.292;2023-02-01T12:19:06;68424.49;;;8.06;57.87
22930;BME280;11630;42.660;23.292;2023-02-01T12:21:38;68440.23;;;8.21;61.33
22930;BME280;11630;42.660;23.292;2023-02-01T12:24:24;68433.20;;;8.17;60.21
22930;BME280;11630;42.660;23.292;2023-02-01T12:33:00;68426.38;;;8.09;61.84
22930;BME280;11630;42.660;23.292;2023-02-01T12:35:47;68400.88;;;7.86;61.77
22930;BME280;11630;42.660;23.292;2023-02-01T12:46:48;68357.73;;;7.43;63.14
22930;BME280;11630;42.660;23.292;2023-02-01T12:51:54;68323.05;;;7.16;63.70
22930;BME280;11630;42.660;23.292;2023-02-01T12:54:48;68338.80;;;7.33;63.33
22930;BME280;11630;42.660;23.292;2023-02-01T12:57:21;68297.58;;;6.92;62.59
22930;BME280;11630;42.660;23.292;2023-02-01T12:59:59;68267.77;;;6.65;63.59
22930;BME280;11630;42.660;23.292;2023-02-01T13:02:44;68289.95;;;6.83;63.98
22930;BME280;11630;42.660;23.292;2023-02-01T13:05:22;68268.55;;;6.65;63.80
22930;BME280;11630;42.660;23.292;2023-02-01T13:08:03;68269.11;;;6.65;64.57
22930;BME280;11630;42.660;23.292;2023-02-01T13:10:51;68267.77;;;6.65;65.03
22930;BME280;11630;42.660;23.292;2023-02-01T13:18:38;68271.55;;;6.69;63.60
22930;BME280;11630;42.660;23.292;2023-02-01T13:21:56;68297.28;;;6.88;64.09
22930;BME280;11630;42.660;23.292;2023-02-01T13:23:41;68283.22;;;6.83;62.48
22930;BME280;11630;42.660;23.292;2023-02-01T13:26:12;68265.06;;;6.65;63.35
22930;BME280;11630;42.660;23.292;2023-02-01T13:28:47;68258.00;;;6.56;63.04
22930;BME280;11630;42.660;23.292;2023-02-01T13:31:31;68273.17;;;6.70;62.42
22930;BME280;11630;42.660;23.292;2023-02-01T13:42:42;68282.63;;;6.75;60.82
22930;BME280;11630;42.660;23.292;2023-02-01T13:45:14;68282.88;;;6.72;60.30
22930;BME280;11630;42.660;23.292;2023-02-01T13:47:47;68289.42;;;6.83;59.88
22930;BME280;11630;42.660;23.292;2023-02-01T13:50:54;68289.42;;;6.83;59.05
22930;BME280;11630;42.660;23.292;2023-02-01T13:53:01;68307.31;;;6.99;59.54
22930;BME280;11630;42.660;23.292;2023-02-01T13:55:35;68299.45;;;6.90;59.01
22930;BME280;11630;42.660;23.292;2023-02-01T13:58:22;68317.64;;;7.13;59.45
22930;BME280;11630;42.660;23.292;2023-02-01T14:01:24;68314.38;;;7.08;58.69
22930;BME280;11630;42.660;23.292;2023-02-01T14:03:44;68304.35;;;7.00;59.68
22930;BME280;11630;42.660;23.292;2023-02-01T14:06:34;68301.38;;;6.96;60.04
22930;BME280;11630;42.660;23.292;2023-02-01T14:09:13;68315.20;;;7.10;60.67
22930;BME280;11630;42.660;23.292;2023-02-01T14:11:35;68300.55;;;6.94;60.52
22930;BME280;11630;42.660;23.292;2023-02-01T14:19:32;68278.59;;;6.75;60.81
22930;BME280;11630;42.660;23.292;2023-02-01T14:22:33;68273.70;;;6.68;61.67
22930;BME280;11630;42.660;23.292;2023-02-01T14:25:04;68272.08;;;6.67;61.60
22930;BME280;11630;42.660;23.292;2023-02-01T14:27:36;68262.89;;;6.63;62.15
22930;BME280;11630;42.660;23.292;2023-02-01T14:30:11;68249.34;;;6.51;61.87
22930;BME280;11630;42.660;23.292;2023-02-01T14:32:40;68248.23;;;6.47;62.42
22930;BME280;11630;42.660;23.292;2023-02-01T14:35:28;68263.95;;;6.59;62.66
22930;BME280;11630;42.660;23.292;2023-02-01T14:38:02;68249.33;;;6.48;61.80
22930;BME280;11630;42.660;23.292;2023-02-01T14:40:33;68236.35;;;6.41;62.79
22930;BME280;11630;42.660;23.292;2023-02-01T14:43:07;68236.33;;;6.36;62.58
22930;BME280;11630;42.660;23.292;2023-02-01T14:45:46;68226.84;;;6.26;63.38
22930;BME280;11630;42.660;23.292;2023-02-01T14:50:48;68205.44;;;6.08;65.13
22930;BME280;11630;42.660;23.292;2023-02-01T14:53:33;68193.24;;;5.96;65.67
22930;BME280;11630;42.660;23.292;2023-02-01T14:56:11;68195.42;;;5.98;66.24